Time;durP1;ratioP1;P1;durP2;ratioP2;P2;SDS_P1;SDS_P2;PMS_P1;PMS_P2;Temp;Humidity;BMP_temperature;BMP_pressure;BME280_temperature;BME280_humidity;BME280_pressure;Samples;Min_cycle;Max_cycle;Signal;HPM_P1;HPM_P2
2023/08/17 00:01:44;;;;;;;;;;;16.00;99.90;;;;;;5113158;28;19923;-64
2023/08/17 00:04:12;;;;;;;;;;;16.00;99.90;;;;;;5112530;28;19932;-63
2023/08/17 00:06:38;;;;;;;;;;;16.00;99.90;;;;;;5095318;28;19923;-63
2023/08/17 00:09:05;;;;;;;;;;;16.00;99.90;;;;;;5095131;28;19938;-63
2023/08/17 00:11:32;;;;;;;;;;;16.00;99.90;;;;;;5112402;28;20283;-63
2023/08/17 00:13:59;;;;;;;;;;;16.00;99.90;;;;;;5094816;28;19923;-63
2023/08/17 00:16:25;;;;;;;;;;;16.00;99.90;;;;;;5112999;28;19927;-63
2023/08/17 00:18:52;;;;;;;;;;;16.10;99.90;;;;;;5113264;28;20337;-64
2023/08/17 00:21:20;;;;;;;;;;;16.10;99.90;;;;;;5113048;28;20379;-63
2023/08/17 00:23:47;;;;;;;;;;;16.10;99.90;;;;;;5094359;28;20551;-64
2023/08/17 00:26:14;;;;;;;;;;;16.10;99.90;;;;;;5112929;28;19930;-64
2023/08/17 00:28:40;;;;;;;;;;;16.10;99.90;;;;;;5112975;28;19938;-64
2023/08/17 00:31:07;;;;;;;;;;;16.10;99.90;;;;;;5112471;28;19924;-64
2023/08/17 00:33:34;;;;;;;;;;;16.20;99.90;;;;;;5112643;28;20380;-63
2023/08/17 00:36:01;;;;;;;;;;;16.20;99.90;;;;;;5113188;28;20397;-63
2023/08/17 00:38:29;;;;;;;;;;;16.20;99.90;;;;;;5112330;28;19932;-64
2023/08/17 00:40:56;;;;;;;;;;;16.20;99.90;;;;;;5094858;28;20343;-63
2023/08/17 00:43:24;;;;;;;;;;;16.20;99.90;;;;;;5112607;28;19986;-63
2023/08/17 00:45:50;;;;;;;;;;;16.20;99.90;;;;;;5112159;28;20322;-63
2023/08/17 00:48:17;;;;;;;;;;;16.10;99.90;;;;;;5112635;28;19928;-64
2023/08/17 00:50:44;;;;;;;;;;;16.10;99.90;;;;;;5094596;28;19969;-63
2023/08/17 00:53:13;;;;;;;;;;;16.00;99.90;;;;;;5109851;28;19935;-64
2023/08/17 00:55:41;;;;;;;;;;;16.00;99.90;;;;;;5094271;28;19924;-64
2023/08/17 00:58:08;;;;;;;;;;;15.90;99.90;;;;;;5094530;28;19975;-64
2023/08/17 01:00:34;;;;;;;;;;;15.90;99.90;;;;;;5112243;28;20390;-63
2023/08/17 01:03:01;;;;;;;;;;;15.80;99.90;;;;;;5094610;28;19928;-64
2023/08/17 01:05:28;;;;;;;;;;;15.80;99.90;;;;;;5112814;28;19927;-64
2023/08/17 01:07:55;;;;;;;;;;;15.80;99.90;;;;;;5094063;28;19924;-63
2023/08/17 01:10:22;;;;;;;;;;;15.80;99.90;;;;;;5096124;28;19955;-63
2023/08/17 01:12:54;;;;;;;;;;;15.70;99.90;;;;;;5097491;28;19924;-63
2023/08/17 01:15:24;;;;;;;;;;;15.70;99.90;;;;;;5096520;28;19927;-63
2023/08/17 01:17:53;;;;;;;;;;;15.60;99.90;;;;;;5116407;28;19939;-63
2023/08/17 01:20:21;;;;;;;;;;;15.60;99.90;;;;;;5097405;28;19930;-63
2023/08/17 01:22:49;;;;;;;;;;;15.60;99.90;;;;;;5116163;28;19931;-63
2023/08/17 01:25:17;;;;;;;;;;;15.50;99.90;;;;;;5097916;28;19931;-63
2023/08/17 01:27:45;;;;;;;;;;;15.50;99.90;;;;;;5097163;28;19931;-64
2023/08/17 01:30:12;;;;;;;;;;;15.50;99.90;;;;;;5097863;28;19927;-63
2023/08/17 01:32:41;;;;;;;;;;;15.40;99.90;;;;;;5116062;28;20337;-63
2023/08/17 01:35:12;;;;;;;;;;;15.40;99.90;;;;;;5097492;28;19931;-63
2023/08/17 01:37:40;;;;;;;;;;;15.40;99.90;;;;;;5096449;28;19928;-63
2023/08/17 01:40:09;;;;;;;;;;;15.30;99.90;;;;;;5097681;28;19973;-63
2023/08/17 01:42:37;;;;;;;;;;;15.30;99.90;;;;;;5115277;28;19930;-63
2023/08/17 01:45:03;;;;;;;;;;;15.30;99.90;;;;;;5114193;28;19924;-63
2023/08/17 01:47:31;;;;;;;;;;;15.30;99.90;;;;;;5115439;28;20615;-63
2023/08/17 01:49:59;;;;;;;;;;;15.20;99.90;;;;;;5096922;28;19923;-63
2023/08/17 01:52:27;;;;;;;;;;;15.20;99.90;;;;;;5115623;28;20444;-63
2023/08/17 01:54:54;;;;;;;;;;;15.20;99.90;;;;;;5115670;28;19924;-63
2023/08/17 01:57:20;;;;;;;;;;;15.70;99.90;;;;;;5115812;28;20028;-63
2023/08/17 01:59:49;;;;;;;;;;;15.20;99.90;;;;;;5115677;28;19930;-63
2023/08/17 02:02:16;;;;;;;;;;;15.20;99.90;;;;;;5096756;28;19989;-63
2023/08/17 02:04:43;;;;;;;;;;;15.20;99.90;;;;;;5115397;28;19946;-63
2023/08/17 02:07:10;;;;;;;;;;;15.20;99.90;;;;;;5097498;28;19931;-63
2023/08/17 02:09:36;;;;;;;;;;;15.20;99.90;;;;;;5096694;28;20383;-63
2023/08/17 02:12:03;;;;;;;;;;;15.20;99.90;;;;;;5115232;28;19924;-63
2023/08/17 02:14:30;;;;;;;;;;;15.20;99.90;;;;;;5115250;28;19977;-63
2023/08/17 02:16:58;;;;;;;;;;;15.10;99.90;;;;;;5114630;28;19956;-63
2023/08/17 02:19:25;;;;;;;;;;;15.10;99.90;;;;;;5114896;28;19931;-64
2023/08/17 02:21:52;;;;;;;;;;;15.20;99.90;;;;;;5095683;28;19924;-64
2023/08/17 02:24:19;;;;;;;;;;;15.20;99.90;;;;;;5114499;28;19935;-63
2023/08/17 02:26:45;;;;;;;;;;;15.20;99.90;;;;;;5097088;28;19924;-64
2023/08/17 02:29:12;;;;;;;;;;;15.20;99.90;;;;;;5114937;28;19934;-63
2023/08/17 02:31:39;;;;;;;;;;;15.20;99.90;;;;;;5114286;28;20383;-63
2023/08/17 02:34:07;;;;;;;;;;;15.20;99.90;;;;;;5112506;28;19924;-63
2023/08/17 02:36:34;;;;;;;;;;;15.20;99.90;;;;;;5096625;28;19946;-63
2023/08/17 02:39:03;;;;;;;;;;;15.20;99.90;;;;;;5096099;28;19993;-63
2023/08/17 02:41:30;;;;;;;;;;;15.20;99.90;;;;;;5096804;28;20375;-63
2023/08/17 02:43:57;;;;;;;;;;;15.20;99.90;;;;;;5114625;28;19923;-63
2023/08/17 02:46:23;;;;;;;;;;;15.20;99.90;;;;;;5095941;28;19928;-63
2023/08/17 02:48:50;;;;;;;;;;;15.20;99.90;;;;;;5096148;28;19924;-63
2023/08/17 02:51:19;;;;;;;;;;;15.20;99.90;;;;;;5096031;28;19924;-63
2023/08/17 02:53:45;;;;;;;;;;;15.20;99.90;;;;;;5114490;28;19946;-62
2023/08/17 02:56:12;;;;;;;;;;;15.30;99.90;;;;;;5096167;28;19932;-63
2023/08/17 02:58:40;;;;;;;;;;;15.30;99.90;;;;;;5095382;28;19975;-62
2023/08/17 03:01:07;;;;;;;;;;;15.30;99.90;;;;;;5114373;28;20014;-63
2023/08/17 03:03:34;;;;;;;;;;;15.30;99.90;;;;;;5114219;28;20397;-63
2023/08/17 03:06:00;;;;;;;;;;;15.30;99.90;;;;;;5093682;28;20389;-63
2023/08/17 03:08:29;;;;;;;;;;;15.30;99.90;;;;;;5096210;28;19931;-63
2023/08/17 03:10:55;;;;;;;;;;;15.30;99.90;;;;;;5114328;28;20383;-63
2023/08/17 03:13:22;;;;;;;;;;;15.30;99.90;;;;;;5113557;28;19932;-63
2023/08/17 03:15:49;;;;;;;;;;;15.40;99.90;;;;;;5114467;28;19935;-63
2023/08/17 03:18:16;;;;;;;;;;;15.30;99.90;;;;;;5113814;28;20382;-63
2023/08/17 03:20:42;;;;;;;;;;;15.40;99.90;;;;;;5095246;28;19933;-63
2023/08/17 03:23:09;;;;;;;;;;;15.30;99.90;;;;;;5095836;28;19924;-63
2023/08/17 03:25:37;;;;;;;;;;;15.30;99.90;;;;;;5096039;28;19924;-63
2023/08/17 03:28:04;;;;;;;;;;;15.40;99.90;;;;;;5113140;28;20379;-63
2023/08/17 03:30:31;;;;;;;;;;;15.30;99.90;;;;;;5095604;28;19927;-63
2023/08/17 03:32:58;;;;;;;;;;;15.30;99.90;;;;;;5095299;28;19931;-63
2023/08/17 03:35:24;;;;;;;;;;;15.30;99.90;;;;;;5095282;28;19927;-62
2023/08/17 03:37:51;;;;;;;;;;;15.20;99.90;;;;;;5113761;28;19924;-62
2023/08/17 03:40:18;;;;;;;;;;;15.20;99.90;;;;;;5113597;28;19927;-62
2023/08/17 03:42:46;;;;;;;;;;;15.20;99.90;;;;;;5112834;28;19923;-63
2023/08/17 03:45:13;;;;;;;;;;;15.20;99.90;;;;;;5092719;28;19934;-63
2023/08/17 03:47:40;;;;;;;;;;;15.50;99.90;;;;;;5087009;28;19924;-63
2023/08/17 03:50:07;;;;;;;;;;;15.70;99.90;;;;;;5110532;28;20008;-63
2023/08/17 03:52:34;;;;;;;;;;;16.20;99.90;;;;;;5094337;28;19924;-64
2023/08/17 03:55:00;;;;;;;;;;;16.40;99.90;;;;;;5091983;28;19976;-64
2023/08/17 03:57:27;;;;;;;;;;;16.60;99.90;;;;;;5094019;28;19924;-63
2023/08/17 03:59:55;;;;;;;;;;;16.90;99.90;;;;;;5109506;28;20379;-63
2023/08/17 04:02:22;;;;;;;;;;;16.50;99.90;;;;;;5111409;28;19938;-64
2023/08/17 04:04:49;;;;;;;;;;;16.60;99.90;;;;;;5111010;28;20022;-63
2023/08/17 04:07:21;;;;;;;;;;;16.40;99.90;;;;;;5111341;28;19931;-63
2023/08/17 04:09:48;;;;;;;;;;;16.40;99.90;;;;;;5110414;28;19924;-63
2023/08/17 04:12:15;;;;;;;;;;;16.60;99.90;;;;;;5093519;28;19924;-63
2023/08/17 04:14:42;;;;;;;;;;;16.50;99.90;;;;;;5093198;28;19935;-63
2023/08/17 04:17:10;;;;;;;;;;;16.20;99.90;;;;;;5110479;28;20298;-63
2023/08/17 04:19:37;;;;;;;;;;;16.50;99.90;;;;;;5107632;28;20425;-64
2023/08/17 04:22:04;;;;;;;;;;;16.70;99.90;;;;;;5093208;28;20379;-64
2023/08/17 04:24:30;;;;;;;;;;;16.50;99.90;;;;;;5107284;28;19934;-64
2023/08/17 04:26:57;;;;;;;;;;;16.80;99.90;;;;;;5127252;28;19931;-63
2023/08/17 04:29:24;;;;;;;;;;;16.70;99.90;;;;;;5110987;28;20006;-63
2023/08/17 04:31:51;;;;;;;;;;;16.80;99.90;;;;;;5109878;28;19932;-63
2023/08/17 04:34:19;;;;;;;;;;;16.80;99.90;;;;;;5111813;28;19942;-64
2023/08/17 04:36:46;;;;;;;;;;;16.80;99.90;;;;;;5088944;28;20409;-62
2023/08/17 04:39:12;;;;;;;;;;;16.50;99.90;;;;;;5092947;28;20302;-62
2023/08/17 04:41:39;;;;;;;;;;;16.60;99.90;;;;;;5109739;28;19924;-62
2023/08/17 04:44:06;;;;;;;;;;;16.70;99.90;;;;;;5107645;28;19989;-63
2023/08/17 04:46:33;;;;;;;;;;;16.80;99.90;;;;;;5113612;28;19927;-63
2023/08/17 04:49:00;;;;;;;;;;;16.50;99.90;;;;;;5097346;28;19976;-63
2023/08/17 04:51:28;;;;;;;;;;;16.50;99.90;;;;;;5113621;28;20291;-62
2023/08/17 04:53:54;;;;;;;;;;;16.40;99.90;;;;;;5116197;28;19972;-63
2023/08/17 04:56:21;;;;;;;;;;;16.60;99.90;;;;;;5114557;28;20329;-64
2023/08/17 04:58:48;;;;;;;;;;;16.80;99.90;;;;;;5096782;28;19977;-63
2023/08/17 05:01:15;;;;;;;;;;;16.70;99.90;;;;;;5113497;28;19923;-63
2023/08/17 05:03:41;;;;;;;;;;;16.50;99.90;;;;;;5113215;28;19932;-63
2023/08/17 05:06:08;;;;;;;;;;;16.30;99.90;;;;;;5112499;28;19924;-63
2023/08/17 05:08:36;;;;;;;;;;;16.30;99.90;;;;;;5116038;28;19967;-63
2023/08/17 05:11:03;;;;;;;;;;;16.40;99.90;;;;;;5095754;28;19928;-62
2023/08/17 05:13:30;;;;;;;;;;;16.70;99.90;;;;;;5096396;28;19923;-64
2023/08/17 05:15:56;;;;;;;;;;;16.90;99.90;;;;;;5096077;28;19924;-63
2023/08/17 05:18:23;;;;;;;;;;;16.80;99.90;;;;;;5095596;28;19939;-63
2023/08/17 05:20:50;;;;;;;;;;;17.20;99.90;;;;;;5094276;28;19939;-63
2023/08/17 05:23:16;;;;;;;;;;;17.00;99.90;;;;;;5092226;28;19924;-64
2023/08/17 05:25:48;;;;;;;;;;;16.80;99.90;;;;;;5094559;28;19935;-64
2023/08/17 05:28:15;;;;;;;;;;;16.80;99.90;;;;;;5113316;28;20018;-64
2023/08/17 05:30:41;;;;;;;;;;;17.30;99.90;;;;;;5115080;28;20411;-64
2023/08/17 05:33:08;;;;;;;;;;;17.40;99.90;;;;;;5113293;28;19924;-64
2023/08/17 05:35:35;;;;;;;;;;;17.40;99.90;;;;;;5095928;28;19931;-63
2023/08/17 05:38:02;;;;;;;;;;;17.50;99.90;;;;;;5096399;28;19923;-63
2023/08/17 05:40:30;;;;;;;;;;;17.50;99.90;;;;;;5114604;28;19992;-62
2023/08/17 05:42:58;;;;;;;;;;;17.30;99.90;;;;;;5113196;28;19931;-63
2023/08/17 05:45:25;;;;;;;;;;;17.50;99.90;;;;;;5114776;28;19931;-63
2023/08/17 05:47:53;;;;;;;;;;;17.60;99.90;;;;;;5111370;28;19923;-62
2023/08/17 05:50:19;;;;;;;;;;;18.00;99.90;;;;;;5115051;28;19931;-64
2023/08/17 05:52:46;;;;;;;;;;;17.70;99.90;;;;;;5112861;28;19963;-63
2023/08/17 05:55:13;;;;;;;;;;;17.90;99.90;;;;;;5112571;28;19927;-63
2023/08/17 05:57:40;;;;;;;;;;;17.90;99.90;;;;;;5112607;28;19923;-63
2023/08/17 06:00:10;;;;;;;;;;;18.20;99.90;;;;;;5096440;28;19955;-63
2023/08/17 06:02:37;;;;;;;;;;;18.60;99.90;;;;;;5111447;28;19931;-63
2023/08/17 06:05:04;;;;;;;;;;;18.80;99.90;;;;;;5095983;28;19932;-63
2023/08/17 06:07:30;;;;;;;;;;;18.90;99.90;;;;;;5094419;28;19924;-63
2023/08/17 06:09:57;;;;;;;;;;;18.80;99.90;;;;;;5112674;28;19924;-63
2023/08/17 06:12:24;;;;;;;;;;;19.00;99.90;;;;;;5114066;28;20440;-63
2023/08/17 06:14:51;;;;;;;;;;;19.10;99.90;;;;;;5092269;28;20364;-63
2023/08/17 06:17:19;;;;;;;;;;;19.30;99.90;;;;;;5092958;28;19992;-63
2023/08/17 06:19:45;;;;;;;;;;;19.50;99.90;;;;;;5092316;28;19923;-63
2023/08/17 06:22:13;;;;;;;;;;;19.60;99.90;;;;;;5113273;28;19924;-63
2023/08/17 06:24:39;;;;;;;;;;;19.60;99.90;;;;;;5094809;28;19974;-63
2023/08/17 06:27:06;;;;;;;;;;;19.40;99.90;;;;;;5095990;28;19962;-64
2023/08/17 06:29:33;;;;;;;;;;;20.00;99.90;;;;;;5094375;28;19972;-64
2023/08/17 06:31:59;;;;;;;;;;;20.40;99.90;;;;;;5096138;28;20440;-64
2023/08/17 06:34:27;;;;;;;;;;;20.70;99.90;;;;;;5094655;28;19931;-64
2023/08/17 06:36:58;;;;;;;;;;;21.20;99.90;;;;;;5113124;28;19939;-64
2023/08/17 06:39:24;;;;;;;;;;;21.70;99.90;;;;;;5112864;28;19980;-64
2023/08/17 06:41:51;;;;;;;;;;;22.10;99.90;;;;;;5093471;27;20383;-64
2023/08/17 06:44:18;;;;;;;;;;;22.50;99.90;;;;;;5113108;28;20307;-64
2023/08/17 06:46:45;;;;;;;;;;;22.60;99.90;;;;;;5112283;28;19976;-64
2023/08/17 06:49:12;;;;;;;;;;;22.90;99.90;;;;;;5096427;28;19924;-64
2023/08/17 06:51:40;;;;;;;;;;;23.10;99.90;;;;;;5095841;28;19931;-64
2023/08/17 06:54:08;;;;;;;;;;;23.20;99.90;;;;;;5096828;28;19924;-64
2023/08/17 06:56:35;;;;;;;;;;;23.20;99.90;;;;;;5114256;28;19924;-64
2023/08/17 06:59:02;;;;;;;;;;;22.50;99.90;;;;;;5114038;28;19927;-63
2023/08/17 07:01:29;;;;;;;;;;;22.10;99.90;;;;;;5066273;28;19930;-63
2023/08/17 07:03:56;;;;;;;;;;;21.70;99.90;;;;;;5114129;28;19923;-63
2023/08/17 07:06:23;;;;;;;;;;;21.50;99.90;;;;;;5113224;28;19961;-63
2023/08/17 07:08:52;;;;;;;;;;;21.00;99.90;;;;;;5094709;28;20432;-64
2023/08/17 07:11:19;;;;;;;;;;;20.70;99.90;;;;;;5095648;28;20014;-63
2023/08/17 07:13:46;;;;;;;;;;;20.60;99.90;;;;;;5113587;28;19931;-63
2023/08/17 07:16:14;;;;;;;;;;;20.40;99.90;;;;;;5113881;28;19963;-62
2023/08/17 07:18:40;;;;;;;;;;;20.20;99.90;;;;;;5095350;28;19930;-63
2023/08/17 07:21:07;;;;;;;;;;;20.00;99.90;;;;;;5095635;28;19928;-63
2023/08/17 07:23:34;;;;;;;;;;;19.90;99.90;;;;;;5095994;28;19927;-63
2023/08/17 07:26:02;;;;;;;;;;;19.80;99.90;;;;;;5095116;28;20364;-63
2023/08/17 07:28:28;;;;;;;;;;;19.70;99.90;;;;;;5095595;28;19924;-64
2023/08/17 07:30:55;;;;;;;;;;;19.70;99.90;;;;;;5095723;28;20708;-63
2023/08/17 07:33:22;;;;;;;;;;;19.80;99.90;;;;;;5113141;28;19930;-63
2023/08/17 07:35:49;;;;;;;;;;;20.10;99.90;;;;;;5095296;28;20784;-63
2023/08/17 07:38:15;;;;;;;;;;;20.20;99.90;;;;;;5112961;28;19924;-63
2023/08/17 07:40:43;;;;;;;;;;;20.20;99.90;;;;;;5112658;28;20375;-63
2023/08/17 07:43:11;;;;;;;;;;;20.30;99.90;;;;;;5112889;28;20375;-63
2023/08/17 07:45:37;;;;;;;;;;;20.30;99.90;;;;;;5113054;28;19931;-63
2023/08/17 07:48:05;;;;;;;;;;;20.20;99.90;;;;;;5094153;28;19934;-63
2023/08/17 07:50:31;;;;;;;;;;;20.20;99.90;;;;;;5094869;28;19924;-63
2023/08/17 07:52:58;;;;;;;;;;;20.10;99.90;;;;;;5112923;28;19924;-63
2023/08/17 07:55:26;;;;;;;;;;;20.10;99.90;;;;;;5112257;28;20432;-63
2023/08/17 07:57:53;;;;;;;;;;;20.00;99.90;;;;;;5112967;28;19936;-63
2023/08/17 08:00:21;;;;;;;;;;;20.00;99.90;;;;;;5113076;28;19924;-63
2023/08/17 08:02:48;;;;;;;;;;;20.00;99.90;;;;;;5112351;28;19984;-63
2023/08/17 08:05:15;;;;;;;;;;;19.90;99.90;;;;;;5094819;28;19928;-63
2023/08/17 08:07:42;;;;;;;;;;;20.10;99.90;;;;;;5128859;27;19928;-63
2023/08/17 08:10:09;;;;;;;;;;;20.10;99.90;;;;;;5093511;28;19927;-63
2023/08/17 08:12:36;;;;;;;;;;;20.30;99.90;;;;;;5111827;28;19924;-63
2023/08/17 08:15:02;;;;;;;;;;;20.60;99.90;;;;;;5111380;28;19931;-63
2023/08/17 08:17:31;;;;;;;;;;;20.60;99.90;;;;;;5112827;28;19934;-63
2023/08/17 08:19:58;;;;;;;;;;;20.90;99.90;;;;;;5112636;28;19931;-63
2023/08/17 08:22:25;;;;;;;;;;;21.00;99.90;;;;;;5091714;28;19928;-63
2023/08/17 08:24:52;;;;;;;;;;;20.90;99.90;;;;;;5112499;28;19959;-63
2023/08/17 08:27:18;;;;;;;;;;;20.90;99.90;;;;;;5094388;28;19930;-63
2023/08/17 08:29:45;;;;;;;;;;;20.80;99.90;;;;;;5112147;28;19924;-63
2023/08/17 08:32:12;;;;;;;;;;;20.80;99.90;;;;;;5112354;28;20003;-63
2023/08/17 08:34:40;;;;;;;;;;;20.80;99.90;;;;;;5094183;28;20376;-63
2023/08/17 08:37:07;;;;;;;;;;;20.80;99.90;;;;;;5111789;28;19930;-63
2023/08/17 08:39:48;;;;;;;;;;;21.10;99.90;;;;;;5112637;28;19935;-63
2023/08/17 08:42:15;;;;;;;;;;;20.90;99.90;;;;;;5110809;28;19927;-63
2023/08/17 08:44:41;;;;;;;;;;;21.00;99.90;;;;;;5093985;28;19927;-63
2023/08/17 08:47:08;;;;;;;;;;;20.90;99.90;;;;;;5094352;28;19931;-63
2023/08/17 08:49:39;;;;;;;;;;;20.90;99.90;;;;;;5094524;28;19930;-63
2023/08/17 08:52:08;;;;;;;;;;;20.70;99.90;;;;;;5093947;28;19927;-63
2023/08/17 08:54:36;;;;;;;;;;;20.80;99.90;;;;;;5110576;28;19924;-63
2023/08/17 08:57:04;;;;;;;;;;;20.90;99.90;;;;;;5093909;28;19923;-64
2023/08/17 08:59:31;;;;;;;;;;;20.70;99.90;;;;;;5112476;28;20410;-63
2023/08/17 09:01:59;;;;;;;;;;;20.80;99.90;;;;;;5094123;28;19932;-63
2023/08/17 09:04:26;;;;;;;;;;;20.60;99.90;;;;;;5112146;28;19936;-63
2023/08/17 09:06:52;;;;;;;;;;;20.80;99.90;;;;;;5112747;28;20284;-63
2023/08/17 09:09:21;;;;;;;;;;;20.80;99.90;;;;;;5094188;28;19935;-64
2023/08/17 09:11:47;;;;;;;;;;;20.90;99.90;;;;;;5093872;28;20352;-63
2023/08/17 09:14:14;;;;;;;;;;;21.10;99.90;;;;;;5112182;28;19928;-63
2023/08/17 09:16:41;;;;;;;;;;;21.50;99.90;;;;;;5094471;28;19974;-63
2023/08/17 09:19:08;;;;;;;;;;;22.50;99.90;;;;;;5093730;28;20379;-63
2023/08/17 09:21:35;;;;;;;;;;;23.20;99.90;;;;;;5112227;28;19927;-63
2023/08/17 09:24:01;;;;;;;;;;;23.20;99.90;;;;;;5112596;28;20333;-63
2023/08/17 09:26:33;;;;;;;;;;;23.30;99.90;;;;;;5109711;28;19932;-64
2023/08/17 09:29:00;;;;;;;;;;;23.80;99.90;;;;;;5094116;28;19946;-63
2023/08/17 09:31:27;;;;;;;;;;;24.10;99.90;;;;;;5114322;28;19927;-63
2023/08/17 09:33:54;;;;;;;;;;;24.80;99.90;;;;;;5115298;28;20414;-63
2023/08/17 09:36:21;;;;;;;;;;;25.20;99.50;;;;;;5116239;28;20376;-63
2023/08/17 09:38:49;;;;;;;;;;;25.70;98.70;;;;;;5116383;28;19930;-64
2023/08/17 09:41:16;;;;;;;;;;;25.90;97.60;;;;;;5114955;28;19928;-64
2023/08/17 09:43:44;;;;;;;;;;;26.40;96.70;;;;;;5097825;28;19923;-64
2023/08/17 09:46:11;;;;;;;;;;;27.10;95.40;;;;;;5116037;28;19935;-64
2023/08/17 09:48:38;;;;;;;;;;;27.50;94.90;;;;;;5115043;28;19967;-64
2023/08/17 09:51:06;;;;;;;;;;;27.60;94.40;;;;;;5095479;28;19927;-64
2023/08/17 09:53:35;;;;;;;;;;;27.90;93.50;;;;;;5095873;28;20424;-64
2023/08/17 09:56:02;;;;;;;;;;;28.30;93.80;;;;;;5115543;28;19920;-64
2023/08/17 09:58:29;;;;;;;;;;;28.50;92.30;;;;;;5115436;28;19932;-64
2023/08/17 10:00:59;;;;;;;;;;;28.90;93.20;;;;;;5114934;28;19924;-64
2023/08/17 10:03:27;;;;;;;;;;;28.90;92.70;;;;;;5096955;28;19930;-64
2023/08/17 10:06:07;;;;;;;;;;;29.30;91.80;;;;;;5097486;28;19924;-64
2023/08/17 10:08:36;;;;;;;;;;;29.40;91.90;;;;;;5114600;28;19928;-64
2023/08/17 10:11:04;;;;;;;;;;;29.90;91.80;;;;;;5115196;28;20444;-64
2023/08/17 10:13:35;;;;;;;;;;;30.10;90.60;;;;;;5097229;28;19923;-64
2023/08/17 10:16:05;;;;;;;;;;;30.40;90.70;;;;;;5114675;28;20384;-64
2023/08/17 10:18:34;;;;;;;;;;;29.50;90.70;;;;;;5115038;28;19924;-64
2023/08/17 10:21:04;;;;;;;;;;;29.30;91.10;;;;;;5115128;28;19923;-64
2023/08/17 10:23:31;;;;;;;;;;;28.40;91.80;;;;;;5114549;28;19931;-64
2023/08/17 10:25:58;;;;;;;;;;;27.30;92.60;;;;;;5115098;28;19924;-64
2023/08/17 10:28:25;;;;;;;;;;;26.30;93.50;;;;;;5114797;28;20383;-64
2023/08/17 10:30:52;;;;;;;;;;;25.80;94.50;;;;;;5101815;28;19931;-63
2023/08/17 10:33:20;;;;;;;;;;;25.30;95.20;;;;;;5091275;28;19927;-63
2023/08/17 10:35:47;;;;;;;;;;;25.10;95.80;;;;;;5108882;28;19928;-63
2023/08/17 10:38:14;;;;;;;;;;;24.80;96.50;;;;;;5109230;28;20380;-64
2023/08/17 10:40:42;;;;;;;;;;;24.60;97.40;;;;;;5110654;28;19924;-64
2023/08/17 10:43:11;;;;;;;;;;;24.40;97.50;;;;;;5091976;28;20390;-65
2023/08/17 10:45:39;;;;;;;;;;;24.50;98.30;;;;;;5113490;28;20003;-65
2023/08/17 10:48:23;;;;;;;;;;;24.80;98.30;;;;;;5110818;28;19976;-64
2023/08/17 10:51:01;;;;;;;;;;;25.10;97.80;;;;;;5086266;28;19931;-64
2023/08/17 10:53:28;;;;;;;;;;;25.20;97.50;;;;;;5093089;28;20443;-64
2023/08/17 10:55:58;;;;;;;;;;;25.30;97.50;;;;;;5113587;28;19976;-64
2023/08/17 10:58:25;;;;;;;;;;;25.10;97.20;;;;;;5110966;28;20421;-64
2023/08/17 11:00:55;;;;;;;;;;;25.20;97.80;;;;;;5095254;28;20364;-64
2023/08/17 11:03:23;;;;;;;;;;;25.30;97.70;;;;;;5110375;28;20349;-64
2023/08/17 11:05:52;;;;;;;;;;;25.20;97.20;;;;;;5094160;28;19978;-64
2023/08/17 11:08:24;;;;;;;;;;;25.20;97.30;;;;;;5111728;28;19930;-64
2023/08/17 11:10:58;;;;;;;;;;;25.70;97.80;;;;;;5109096;28;20333;-64
2023/08/17 11:13:25;;;;;;;;;;;26.40;96.90;;;;;;5093352;28;19963;-65
2023/08/17 11:15:52;;;;;;;;;;;27.60;96.30;;;;;;5111511;28;19924;-64
2023/08/17 11:18:18;;;;;;;;;;;27.60;95.50;;;;;;5094401;28;19923;-64
2023/08/17 11:20:46;;;;;;;;;;;27.80;95.20;;;;;;5111736;28;20291;-64
2023/08/17 11:23:13;;;;;;;;;;;27.70;95.10;;;;;;5112213;28;20289;-64
2023/08/17 11:25:42;;;;;;;;;;;27.30;95.00;;;;;;5112601;27;19930;-64
2023/08/17 11:28:09;;;;;;;;;;;26.90;95.70;;;;;;5108528;28;19932;-64
2023/08/17 11:30:38;;;;;;;;;;;26.40;95.30;;;;;;5093655;28;19923;-64
2023/08/17 11:33:05;;;;;;;;;;;26.30;95.90;;;;;;5111734;28;19932;-64
2023/08/17 11:35:32;;;;;;;;;;;26.30;96.70;;;;;;5109964;28;19935;-64
2023/08/17 11:37:59;;;;;;;;;;;26.10;97.10;;;;;;5090803;28;19977;-64
2023/08/17 11:40:26;;;;;;;;;;;26.20;97.20;;;;;;5110918;28;19923;-64
2023/08/17 11:42:54;;;;;;;;;;;26.20;97.30;;;;;;5093897;28;19924;-64
2023/08/17 11:45:21;;;;;;;;;;;26.40;97.20;;;;;;5091883;28;19924;-63
2023/08/17 11:47:48;;;;;;;;;;;26.60;96.50;;;;;;5091059;28;19975;-63
2023/08/17 11:50:15;;;;;;;;;;;26.30;96.70;;;;;;5092398;28;19927;-64
2023/08/17 11:52:42;;;;;;;;;;;26.40;97.30;;;;;;5094212;28;19927;-64
2023/08/17 11:55:09;;;;;;;;;;;26.40;96.70;;;;;;5109812;28;20287;-64
2023/08/17 11:57:36;;;;;;;;;;;26.40;96.40;;;;;;5111034;28;20271;-64
2023/08/17 12:00:06;;;;;;;;;;;26.20;96.90;;;;;;5091944;28;19928;-64
2023/08/17 12:02:37;;;;;;;;;;;26.00;96.80;;;;;;5110514;28;19932;-65
2023/08/17 12:05:06;;;;;;;;;;;26.20;96.50;;;;;;5090644;28;19928;-63
2023/08/17 12:07:33;;;;;;;;;;;25.90;96.20;;;;;;5090993;28;19927;-62
2023/08/17 12:09:59;;;;;;;;;;;26.00;96.80;;;;;;5093963;28;19931;-63
2023/08/17 12:12:28;;;;;;;;;;;25.90;97.30;;;;;;5110314;28;19924;-63
2023/08/17 12:14:55;;;;;;;;;;;26.20;96.50;;;;;;5108059;28;20022;-64
2023/08/17 12:17:23;;;;;;;;;;;25.90;97.60;;;;;;5110292;28;19972;-63
2023/08/17 12:19:50;;;;;;;;;;;25.80;97.30;;;;;;5093737;28;19924;-63
2023/08/17 12:22:17;;;;;;;;;;;25.40;97.90;;;;;;5092159;28;19924;-63
2023/08/17 12:24:44;;;;;;;;;;;25.10;98.00;;;;;;5094064;28;19928;-64
2023/08/17 12:27:11;;;;;;;;;;;24.90;99.00;;;;;;5110095;28;19924;-62
2023/08/17 12:29:47;;;;;;;;;;;25.00;98.80;;;;;;5106533;28;19923;-63
2023/08/17 12:32:14;;;;;;;;;;;25.00;98.70;;;;;;5093413;28;20416;-63
2023/08/17 12:34:42;;;;;;;;;;;24.90;99.60;;;;;;5093423;28;19931;-63
2023/08/17 12:37:09;;;;;;;;;;;24.80;99.50;;;;;;5109051;28;19935;-64
2023/08/17 12:39:36;;;;;;;;;;;25.10;99.60;;;;;;5091246;28;19923;-64
2023/08/17 12:42:02;;;;;;;;;;;25.40;99.40;;;;;;5111520;28;19924;-65
2023/08/17 12:44:29;;;;;;;;;;;25.30;99.10;;;;;;5109817;28;20375;-64
2023/08/17 12:46:56;;;;;;;;;;;24.80;99.20;;;;;;5111918;28;19931;-64
2023/08/17 12:49:23;;;;;;;;;;;24.70;99.90;;;;;;5107988;28;19928;-64
2023/08/17 12:51:52;;;;;;;;;;;24.60;99.90;;;;;;5109288;28;20014;-64
2023/08/17 12:54:18;;;;;;;;;;;24.30;99.90;;;;;;5109903;28;20244;-64
2023/08/17 12:56:45;;;;;;;;;;;24.20;99.90;;;;;;5110769;28;20356;-64
2023/08/17 12:59:12;;;;;;;;;;;23.90;99.90;;;;;;5093155;28;19931;-64
2023/08/17 13:01:39;;;;;;;;;;;23.80;99.90;;;;;;5093286;28;19931;-63
2023/08/17 13:04:06;;;;;;;;;;;23.80;99.90;;;;;;5090939;28;19981;-64
2023/08/17 13:06:32;;;;;;;;;;;23.70;99.90;;;;;;5113598;28;20267;-64
2023/08/17 13:09:01;;;;;;;;;;;23.60;99.90;;;;;;5096715;28;19980;-64
2023/08/17 13:11:28;;;;;;;;;;;23.50;99.90;;;;;;5096480;28;19946;-64
2023/08/17 13:13:55;;;;;;;;;;;23.60;99.90;;;;;;5111885;28;19951;-64
2023/08/17 13:16:22;;;;;;;;;;;23.60;99.90;;;;;;5114981;28;19931;-64
2023/08/17 13:18:49;;;;;;;;;;;23.80;99.90;;;;;;5114664;28;19966;-64
2023/08/17 13:21:17;;;;;;;;;;;23.70;99.90;;;;;;5098079;28;19924;-63
2023/08/17 13:23:44;;;;;;;;;;;23.70;99.90;;;;;;5115593;28;19972;-64
2023/08/17 13:26:12;;;;;;;;;;;23.40;99.90;;;;;;5097552;28;19923;-64
2023/08/17 13:28:39;;;;;;;;;;;23.30;99.90;;;;;;5098206;28;20481;-64
2023/08/17 13:31:06;;;;;;;;;;;23.20;99.90;;;;;;5115412;28;19924;-63
2023/08/17 13:33:33;;;;;;;;;;;23.10;99.90;;;;;;5097424;28;20295;-63
2023/08/17 13:35:59;;;;;;;;;;;23.00;99.90;;;;;;5097973;28;19930;-63
2023/08/17 13:38:26;;;;;;;;;;;23.00;99.90;;;;;;5115812;28;20472;-63
2023/08/17 13:40:53;;;;;;;;;;;22.90;99.90;;;;;;5131549;27;19924;-63
2023/08/17 13:43:21;;;;;;;;;;;22.80;99.90;;;;;;5115721;28;19932;-63
2023/08/17 13:45:48;;;;;;;;;;;22.70;99.90;;;;;;5097242;28;19924;-64
2023/08/17 13:48:15;;;;;;;;;;;22.60;99.90;;;;;;5115706;28;20348;-64
2023/08/17 13:50:42;;;;;;;;;;;22.40;99.90;;;;;;5115759;28;19928;-63
2023/08/17 13:53:08;;;;;;;;;;;22.40;99.90;;;;;;5115098;28;19930;-64
2023/08/17 13:55:35;;;;;;;;;;;22.30;99.90;;;;;;5115693;28;20018;-63
2023/08/17 13:58:02;;;;;;;;;;;22.10;99.90;;;;;;5097659;28;20348;-64
2023/08/17 14:00:30;;;;;;;;;;;22.10;99.90;;;;;;5114955;28;19947;-64
2023/08/17 14:02:57;;;;;;;;;;;22.00;99.90;;;;;;5097224;28;20378;-63
2023/08/17 14:05:24;;;;;;;;;;;22.00;99.90;;;;;;5097319;28;19938;-64
2023/08/17 14:07:50;;;;;;;;;;;22.20;99.90;;;;;;5096746;28;19927;-63
2023/08/17 14:10:17;;;;;;;;;;;22.30;99.90;;;;;;5115506;28;19939;-62
2023/08/17 14:12:44;;;;;;;;;;;22.40;99.90;;;;;;5115603;28;19924;-63
2023/08/17 14:15:11;;;;;;;;;;;22.40;99.90;;;;;;5096314;28;19931;-63
2023/08/17 14:17:39;;;;;;;;;;;22.50;99.90;;;;;;5115006;28;19970;-63